createdAt,value
2023-04-07T00:00:27.132Z,0.54
2023-04-07T00:02:29.905Z,0.49
2023-04-07T00:04:33.888Z,0.43
2023-04-07T00:06:36.703Z,0.43
2023-04-07T00:08:39.822Z,0.36
2023-04-07T00:10:42.542Z,0.40
2023-04-07T00:12:45.321Z,0.37
2023-04-07T00:14:48.032Z,0.35
2023-04-07T00:16:50.636Z,0.29
2023-04-07T00:18:53.387Z,0.30
2023-04-07T00:20:56.532Z,0.25
2023-04-07T00:22:59.143Z,0.22
2023-04-07T00:25:01.768Z,0.14
2023-04-07T00:27:06.008Z,0.09
2023-04-07T00:29:08.744Z,0.08
2023-04-07T00:31:11.360Z,0.07
2023-04-07T00:33:13.978Z,0.06
2023-04-07T00:35:16.742Z,0.06
2023-04-07T00:37:19.599Z,-0.02
2023-04-07T00:39:22.349Z,-0.02
2023-04-07T00:41:24.957Z,-0.03
2023-04-07T00:43:27.983Z,-0.06
2023-04-07T00:45:30.701Z,-0.08
2023-04-07T00:47:33.318Z,-0.11
2023-04-07T00:49:38.000Z,-0.12
2023-04-07T00:51:40.758Z,-0.09
2023-04-07T00:53:44.006Z,-0.11
2023-04-07T00:55:46.952Z,-0.10
2023-04-07T00:57:49.630Z,-0.15
2023-04-07T00:59:55.607Z,-0.16
2023-04-07T01:02:07.323Z,-0.15
2023-04-07T01:04:23.371Z,-0.17
2023-04-07T01:06:31.669Z,-0.20
2023-04-07T01:08:50.360Z,-0.18
2023-04-07T01:11:32.013Z,-0.20
2023-04-07T01:13:48.527Z,-0.28
2023-04-07T01:15:57.350Z,-0.30
2023-04-07T01:18:09.000Z,-0.30
2023-04-07T01:20:16.611Z,-0.35
2023-04-07T01:22:27.652Z,-0.42
2023-04-07T01:24:56.674Z,-0.51
2023-04-07T01:27:14.289Z,-0.50
2023-04-07T01:29:37.446Z,-0.51
2023-04-07T01:31:42.076Z,-0.54
2023-04-07T01:33:47.773Z,-0.56
2023-04-07T01:35:51.600Z,-0.56
2023-04-07T01:37:55.227Z,-0.55
2023-04-07T01:39:57.873Z,-0.56
2023-04-07T01:42:04.990Z,-0.58
2023-04-07T01:44:09.738Z,-0.59
2023-04-07T01:46:12.347Z,-0.60
2023-04-07T01:48:16.228Z,-0.65
2023-04-07T01:50:20.807Z,-0.66
2023-04-07T01:52:23.484Z,-0.67
2023-04-07T01:54:27.456Z,-0.67
2023-04-07T01:56:30.234Z,-0.70
2023-04-07T01:58:33.104Z,-0.70
2023-04-07T02:00:35.973Z,-0.72
2023-04-07T02:02:42.541Z,-0.73
2023-04-07T02:05:00.202Z,-0.74
2023-04-07T02:07:09.903Z,-0.74
2023-04-07T02:09:17.674Z,-0.72
2023-04-07T02:11:22.584Z,-0.73
2023-04-07T02:13:26.586Z,-0.76
2023-04-07T02:15:31.489Z,-0.72
2023-04-07T02:17:36.199Z,-0.72
2023-04-07T02:19:39.783Z,-0.71
2023-04-07T02:21:44.477Z,-0.69
2023-04-07T02:23:47.221Z,-0.69
2023-04-07T02:25:49.916Z,-0.67
2023-04-07T02:27:53.085Z,-0.67
2023-04-07T02:29:55.907Z,-0.61
2023-04-07T02:31:58.637Z,-0.58
2023-04-07T02:34:01.536Z,-0.55
2023-04-07T02:36:04.447Z,-0.53
2023-04-07T02:38:07.082Z,-0.50
2023-04-07T02:40:10.051Z,-0.50
2023-04-07T02:42:12.726Z,-0.48
2023-04-07T02:44:15.531Z,-0.47
2023-04-07T02:46:18.140Z,-0.46
2023-04-07T02:48:21.032Z,-0.40
2023-04-07T02:50:23.748Z,-0.37
2023-04-07T02:52:26.444Z,-0.35
2023-04-07T02:54:28.979Z,-0.32
2023-04-07T02:56:31.740Z,-0.29
2023-04-07T02:58:34.397Z,-0.24
2023-04-07T03:00:37.025Z,-0.23
2023-04-07T03:02:39.785Z,-0.20
2023-04-07T03:04:42.668Z,-0.17
2023-04-07T03:06:45.347Z,-0.17
2023-04-07T03:08:47.907Z,-0.16
2023-04-07T03:10:50.617Z,-0.11
2023-04-07T03:12:53.404Z,-0.07
2023-04-07T03:14:56.013Z,-0.02
2023-04-07T03:16:58.715Z,-0.02
2023-04-07T03:19:01.367Z,-0.04
2023-04-07T03:21:03.967Z,-0.03
2023-04-07T03:23:07.231Z,-0.02
2023-04-07T03:25:10.112Z,0.01
2023-04-07T03:27:12.770Z,0.02
2023-04-07T03:29:15.510Z,0.08
2023-04-07T03:31:18.411Z,0.06
2023-04-07T03:33:21.219Z,0.08
2023-04-07T03:35:23.866Z,0.07
2023-04-07T03:37:26.694Z,0.11
2023-04-07T03:39:29.295Z,0.12
2023-04-07T03:41:31.869Z,0.16
2023-04-07T03:43:34.679Z,0.17
2023-04-07T03:45:37.333Z,0.22
2023-04-07T03:47:40.005Z,0.25
2023-04-07T03:49:42.564Z,0.28
2023-04-07T03:51:45.174Z,0.31
2023-04-07T03:53:47.764Z,0.35
2023-04-07T03:55:50.874Z,0.41
2023-04-07T03:57:53.587Z,0.41
2023-04-07T03:59:56.532Z,0.44
2023-04-07T04:01:59.167Z,0.57
2023-04-07T04:04:02.196Z,0.61
2023-04-07T04:06:05.260Z,0.67
2023-04-07T04:08:07.924Z,0.67
2023-04-07T04:10:10.834Z,0.75
2023-04-07T04:12:13.505Z,0.79
2023-04-07T04:14:16.862Z,0.84
2023-04-07T04:16:19.505Z,0.88
2023-04-07T04:18:22.149Z,0.95
2023-04-07T04:20:24.778Z,0.98
2023-04-07T04:22:27.651Z,0.99
2023-04-07T04:24:30.332Z,1.03
2023-04-07T04:26:32.931Z,1.05
2023-04-07T04:28:35.908Z,1.08
2023-04-07T04:30:38.566Z,1.15
2023-04-07T04:32:41.548Z,1.19
2023-04-07T04:34:44.331Z,1.22
2023-04-07T04:36:49.348Z,1.26
2023-04-07T04:38:52.299Z,1.32
2023-04-07T04:40:54.950Z,1.34
2023-04-07T04:42:57.555Z,1.37
2023-04-07T04:45:00.210Z,1.39
2023-04-07T04:47:03.260Z,1.43
2023-04-07T04:49:06.718Z,1.44
2023-04-07T04:51:09.307Z,1.54
2023-04-07T04:53:12.397Z,1.59
2023-04-07T04:55:15.429Z,1.60
2023-04-07T04:57:17.965Z,1.68
2023-04-07T04:59:20.640Z,1.71
2023-04-07T05:01:23.309Z,1.75
2023-04-07T05:03:27.712Z,1.78
2023-04-07T05:05:30.749Z,1.87
2023-04-07T05:07:33.415Z,1.93
2023-04-07T05:09:36.139Z,1.99
2023-04-07T05:11:38.726Z,2.07
2023-04-07T05:13:41.423Z,2.14
2023-04-07T05:15:44.294Z,2.22
2023-04-07T05:17:50.756Z,2.27
2023-04-07T05:19:53.439Z,2.28
2023-04-07T05:21:56.450Z,2.32
2023-04-07T05:23:59.120Z,2.41
2023-04-07T05:26:01.779Z,2.51
2023-04-07T05:28:04.823Z,2.62
2023-04-07T05:30:08.136Z,2.70
2023-04-07T05:32:10.850Z,2.71
2023-04-07T05:34:13.596Z,2.77
2023-04-07T05:36:16.529Z,2.84
2023-04-07T05:38:19.159Z,2.93
2023-04-07T05:40:21.850Z,3.01
2023-04-07T05:42:24.599Z,3.07
2023-04-07T05:44:27.319Z,3.09
2023-04-07T05:46:30.036Z,3.14
2023-04-07T05:48:32.591Z,3.23
2023-04-07T05:50:35.375Z,3.28
2023-04-07T05:52:38.013Z,3.36
2023-04-07T05:54:40.964Z,3.46
2023-04-07T05:56:43.701Z,3.50
2023-04-07T05:58:46.486Z,3.56
2023-04-07T06:00:52.521Z,3.64
2023-04-07T06:02:59.999Z,3.67
2023-04-07T06:05:03.782Z,3.71
2023-04-07T06:07:07.084Z,3.74
2023-04-07T06:09:09.812Z,3.80
2023-04-07T06:11:12.478Z,3.87
2023-04-07T06:13:15.163Z,3.92
2023-04-07T06:15:17.935Z,3.96
2023-04-07T06:17:20.798Z,3.97
2023-04-07T06:19:23.394Z,4.06
2023-04-07T06:21:26.746Z,4.12
2023-04-07T06:23:29.405Z,4.21
2023-04-07T06:25:32.084Z,4.28
2023-04-07T06:27:35.874Z,4.34
2023-04-07T06:29:38.575Z,4.35
2023-04-07T06:31:41.738Z,4.42
2023-04-07T06:33:45.171Z,4.51
2023-04-07T06:35:47.842Z,4.56
2023-04-07T06:37:50.539Z,4.62
2023-04-07T06:39:53.381Z,4.69
2023-04-07T06:41:57.341Z,4.71
2023-04-07T06:43:59.978Z,4.77
2023-04-07T06:46:02.619Z,4.86
2023-04-07T06:48:05.738Z,4.90
2023-04-07T06:50:10.068Z,4.95
2023-04-07T06:52:13.425Z,5.00
2023-04-07T06:54:16.415Z,5.04
2023-04-07T06:56:19.299Z,5.12
2023-04-07T06:58:21.937Z,5.27
2023-04-07T07:00:25.347Z,5.37
2023-04-07T07:02:28.354Z,5.39
2023-04-07T07:04:31.138Z,5.46
2023-04-07T07:06:33.876Z,5.53
2023-04-07T07:08:36.485Z,5.58
2023-04-07T07:10:39.113Z,5.62
2023-04-07T07:12:41.884Z,5.63
2023-04-07T07:14:44.694Z,5.67
2023-04-07T07:16:47.332Z,5.71
2023-04-07T07:18:51.563Z,5.82
2023-04-07T07:20:54.333Z,5.81
2023-04-07T07:22:56.975Z,5.88
2023-04-07T07:24:59.942Z,5.93
2023-04-07T07:27:03.585Z,5.92
2023-04-07T07:29:06.496Z,6.00
2023-04-07T07:31:16.611Z,6.03
2023-04-07T07:33:23.063Z,6.05
2023-04-07T07:35:25.738Z,6.17
2023-04-07T07:37:28.407Z,6.25
2023-04-07T07:39:31.116Z,6.37
2023-04-07T07:41:34.655Z,6.42
2023-04-07T07:43:38.030Z,6.51
2023-04-07T07:45:43.259Z,6.55
2023-04-07T07:47:46.283Z,6.50
2023-04-07T07:49:49.414Z,6.45
2023-04-07T07:51:52.284Z,6.42
2023-04-07T07:53:55.154Z,6.53
2023-04-07T07:55:58.294Z,6.61
2023-04-07T07:58:03.098Z,6.67
2023-04-07T08:00:08.093Z,6.67
2023-04-07T08:02:11.387Z,6.76
2023-04-07T08:04:14.461Z,6.85
2023-04-07T08:06:17.958Z,6.98
2023-04-07T08:08:20.750Z,6.97
2023-04-07T08:10:25.426Z,6.97
2023-04-07T08:12:28.897Z,7.03
2023-04-07T08:14:31.760Z,7.02
2023-04-07T08:16:34.986Z,7.17
2023-04-07T08:18:38.202Z,7.29
2023-04-07T08:20:46.819Z,7.27
2023-04-07T08:22:49.990Z,7.31
2023-04-07T08:24:52.985Z,7.29
2023-04-07T08:26:56.976Z,7.28
2023-04-07T08:29:00.271Z,7.32
2023-04-07T08:31:03.039Z,7.30
2023-04-07T08:35:10.172Z,7.28
2023-04-07T08:37:12.760Z,7.29
2023-04-07T08:39:15.550Z,7.33
2023-04-07T08:41:24.490Z,7.40
2023-04-07T08:43:29.437Z,7.40
2023-04-07T08:45:34.293Z,7.44
2023-04-07T08:47:37.881Z,7.54
2023-04-07T08:49:45.104Z,7.62
2023-04-07T08:51:48.697Z,7.70
2023-04-07T08:53:54.335Z,7.70
2023-04-07T08:55:58.028Z,7.70
2023-04-07T08:58:02.246Z,7.69
2023-04-07T09:00:06.122Z,7.74
2023-04-07T09:02:09.518Z,7.79
2023-04-07T09:04:12.650Z,7.84
2023-04-07T09:06:16.297Z,7.90
2023-04-07T09:08:19.003Z,7.97
2023-04-07T09:10:21.641Z,8.05
2023-04-07T09:12:26.075Z,8.17
2023-04-07T09:14:29.442Z,8.27
2023-04-07T09:16:32.413Z,8.30
2023-04-07T09:18:35.640Z,8.30
2023-04-07T09:21:01.362Z,8.39
2023-04-07T09:23:04.032Z,8.38
2023-04-07T09:25:18.464Z,8.37
2023-04-07T09:27:21.144Z,8.39
2023-04-07T09:29:24.018Z,8.41
2023-04-07T09:31:48.680Z,8.38
2023-04-07T09:33:52.070Z,8.49
2023-04-07T09:35:55.077Z,8.58
2023-04-07T09:38:08.749Z,8.68
2023-04-07T09:40:11.847Z,8.84
2023-04-07T09:42:14.986Z,8.97
2023-04-07T09:44:24.924Z,8.99
2023-04-07T09:46:29.546Z,9.02
2023-04-07T09:48:32.857Z,9.08
2023-04-07T09:50:37.367Z,8.98
2023-04-07T09:52:53.217Z,8.96
2023-04-07T09:54:56.996Z,8.97
2023-04-07T09:57:02.600Z,9.02
2023-04-07T09:59:05.556Z,9.12
2023-04-07T10:01:12.520Z,9.15
2023-04-07T10:03:15.884Z,9.15
2023-04-07T10:05:21.793Z,9.12
2023-04-07T10:07:24.683Z,9.10
2023-04-07T10:09:28.716Z,9.01
2023-04-07T10:11:33.398Z,9.00
2023-04-07T10:13:39.644Z,8.96
2023-04-07T10:15:43.022Z,9.01
2023-04-07T10:17:48.458Z,9.15
2023-04-07T10:19:52.429Z,9.22
2023-04-07T10:21:56.093Z,9.27
2023-04-07T10:24:04.287Z,9.38
2023-04-07T10:26:08.611Z,9.45
2023-04-07T10:28:13.325Z,9.47
2023-04-07T10:30:24.384Z,9.51
2023-04-07T10:32:27.572Z,9.56
2023-04-07T10:34:50.934Z,9.69
2023-04-07T10:37:23.762Z,9.79
2023-04-07T10:39:26.562Z,9.76
2023-04-07T10:41:36.648Z,9.83
2023-04-07T10:43:42.229Z,9.84
2023-04-07T10:45:52.103Z,9.99
2023-04-07T10:48:03.962Z,10.13
2023-04-07T10:50:22.609Z,10.20
2023-04-07T10:52:25.369Z,10.22
2023-04-07T10:54:29.406Z,10.36
2023-04-07T10:57:05.444Z,10.51
2023-04-07T10:59:17.476Z,10.58
2023-04-07T11:01:21.211Z,10.71
2023-04-07T11:03:25.745Z,10.87
2023-04-07T11:05:28.882Z,10.99
2023-04-07T11:07:52.736Z,11.04
2023-04-07T11:10:16.568Z,11.03
2023-04-07T11:12:25.243Z,11.05
2023-04-07T11:14:31.953Z,10.96
2023-04-07T11:16:42.719Z,10.91
2023-04-07T11:18:48.320Z,10.97
2023-04-07T11:20:54.649Z,11.08
2023-04-07T11:23:00.822Z,11.11
2023-04-07T11:25:03.740Z,11.24
2023-04-07T11:27:07.568Z,11.32
2023-04-07T11:29:12.385Z,11.39
2023-04-07T11:31:31.483Z,11.37
2023-04-07T11:33:37.594Z,11.39
2023-04-07T11:35:57.775Z,11.40
2023-04-07T11:38:02.043Z,11.39
2023-04-07T11:40:05.155Z,11.39
2023-04-07T11:42:09.048Z,11.52
2023-04-07T11:44:17.570Z,11.53
2023-04-07T11:46:26.810Z,11.51
2023-04-07T11:48:32.967Z,11.59
2023-04-07T11:50:43.046Z,11.62
2023-04-07T11:52:49.460Z,11.60
2023-04-07T11:54:52.305Z,11.64
2023-04-07T11:56:56.187Z,11.76
2023-04-07T11:58:59.375Z,11.88
2023-04-07T12:01:09.334Z,11.94
2023-04-07T12:03:16.558Z,12.03
2023-04-07T12:05:19.362Z,12.05
2023-04-07T12:07:22.147Z,12.12
2023-04-07T12:09:32.574Z,12.20
2023-04-07T12:11:36.773Z,12.29
2023-04-07T12:13:39.635Z,12.50
2023-04-07T12:15:42.676Z,12.71
2023-04-07T12:17:49.669Z,12.84
2023-04-07T12:19:53.291Z,12.91
2023-04-07T12:21:57.199Z,12.96
2023-04-07T12:23:59.966Z,12.93
2023-04-07T12:26:03.033Z,12.95
2023-04-07T12:28:06.126Z,13.12
2023-04-07T12:30:09.390Z,13.18
2023-04-07T12:32:12.448Z,13.13
2023-04-07T12:34:15.122Z,13.19
2023-04-07T12:36:17.762Z,13.13
2023-04-07T12:38:21.151Z,13.23
2023-04-07T12:40:24.648Z,13.21
2023-04-07T12:42:27.829Z,13.25
2023-04-07T12:44:30.515Z,13.26
2023-04-07T12:46:33.250Z,13.24
2023-04-07T12:48:36.115Z,13.41
2023-04-07T12:50:38.919Z,13.67
2023-04-07T12:52:41.683Z,13.96
2023-04-07T12:54:45.570Z,14.04
2023-04-07T12:56:48.328Z,14.20
2023-04-07T12:58:51.215Z,14.21
2023-04-07T13:00:53.946Z,14.06
2023-04-07T13:02:56.867Z,14.21
2023-04-07T13:04:59.712Z,14.38
2023-04-07T13:07:03.327Z,14.43
2023-04-07T13:09:06.206Z,14.59
2023-04-07T13:11:08.877Z,14.74
2023-04-07T13:13:11.686Z,14.86
2023-04-07T13:15:14.594Z,14.73
2023-04-07T13:17:18.853Z,14.53
2023-04-07T13:19:22.144Z,14.37
2023-04-07T13:25:35.904Z,14.35
2023-04-07T13:27:39.106Z,14.51
2023-04-07T13:29:42.521Z,14.61
2023-04-07T13:31:49.148Z,14.67
2023-04-07T13:33:52.006Z,14.74
2023-04-07T13:35:54.885Z,14.82
2023-04-07T13:37:57.720Z,14.85
2023-04-07T13:40:00.769Z,14.78
2023-04-07T13:42:03.543Z,14.66
2023-04-07T13:44:06.546Z,14.70
2023-04-07T13:46:27.331Z,14.61
2023-04-07T13:48:34.595Z,14.56
2023-04-07T13:50:37.989Z,14.48
2023-04-07T13:52:40.763Z,14.65
2023-04-07T13:54:45.516Z,14.57
2023-04-07T13:56:51.764Z,14.91
2023-04-07T13:58:54.514Z,14.96
2023-04-07T14:00:57.434Z,14.94
2023-04-07T14:03:00.444Z,14.92
2023-04-07T14:05:03.390Z,14.70
2023-04-07T14:07:06.578Z,14.62
2023-04-07T14:09:09.629Z,14.55
2023-04-07T14:11:12.542Z,14.46
2023-04-07T14:13:15.886Z,14.53
2023-04-07T14:15:18.623Z,14.56
2023-04-07T14:17:21.399Z,14.51
2023-04-07T14:19:24.678Z,14.52
2023-04-07T14:21:30.228Z,14.49
2023-04-07T14:23:37.150Z,14.41
2023-04-07T14:25:40.186Z,14.31
2023-04-07T14:27:42.767Z,14.27
2023-04-07T14:29:45.666Z,14.23
2023-04-07T14:31:48.901Z,14.20
2023-04-07T14:33:51.773Z,14.16
2023-04-07T14:35:54.696Z,13.99
2023-04-07T14:37:57.462Z,13.91
2023-04-07T14:40:03.080Z,13.89
2023-04-07T14:42:07.664Z,13.79
2023-04-07T14:44:10.705Z,13.67
2023-04-07T14:46:15.115Z,13.70
2023-04-07T14:48:17.900Z,13.58
2023-04-07T14:50:20.765Z,13.56
2023-04-07T14:52:23.429Z,13.48
2023-04-07T14:54:26.138Z,13.43
2023-04-07T14:56:28.737Z,13.23
2023-04-07T14:58:32.340Z,13.01
2023-04-07T15:00:35.666Z,12.90
2023-04-07T15:02:38.894Z,12.67
2023-04-07T15:04:42.412Z,12.36
2023-04-07T15:06:47.269Z,11.73
2023-04-07T15:08:50.181Z,11.29
2023-04-07T15:10:52.963Z,10.84
2023-04-07T15:12:55.685Z,10.52
2023-04-07T15:14:58.430Z,10.21
2023-04-07T15:17:01.149Z,9.99
2023-04-07T15:19:03.944Z,9.82
2023-04-07T15:21:07.262Z,9.66
2023-04-07T15:23:09.856Z,9.49
2023-04-07T15:25:12.475Z,9.33
2023-04-07T15:27:16.312Z,9.12
2023-04-07T15:29:19.071Z,8.98
2023-04-07T15:31:23.581Z,8.82
2023-04-07T15:33:26.550Z,8.70
2023-04-07T15:35:29.162Z,8.58
2023-04-07T15:37:32.216Z,8.44
2023-04-07T15:39:34.915Z,8.33
2023-04-07T15:41:38.245Z,8.25
2023-04-07T15:43:40.980Z,8.17
2023-04-07T15:45:45.093Z,8.02
2023-04-07T15:47:47.936Z,7.90
2023-04-07T15:49:50.565Z,7.85
2023-04-07T15:51:53.244Z,7.72
2023-04-07T15:53:56.023Z,7.61
2023-04-07T15:55:58.792Z,7.55
2023-04-07T15:58:02.337Z,7.47
2023-04-07T16:00:05.834Z,7.42
2023-04-07T16:02:08.912Z,7.32
2023-04-07T16:04:11.753Z,7.25
2023-04-07T16:06:14.430Z,7.18
2023-04-07T16:08:17.799Z,7.15
2023-04-07T16:10:20.588Z,7.07
2023-04-07T16:12:23.500Z,6.98
2023-04-07T16:14:29.283Z,6.93
2023-04-07T16:16:36.067Z,6.85
2023-04-07T16:18:39.010Z,6.80
2023-04-07T16:20:41.858Z,6.72
2023-04-07T16:22:46.617Z,6.62
2023-04-07T16:24:49.328Z,6.56
2023-04-07T16:26:52.664Z,6.48
2023-04-07T16:28:55.444Z,6.44
2023-04-07T16:30:58.226Z,6.36
2023-04-07T16:33:01.764Z,6.32
2023-04-07T16:35:04.888Z,6.25
2023-04-07T16:37:07.589Z,6.21
2023-04-07T16:39:11.538Z,6.18
2023-04-07T16:41:14.247Z,6.14
2023-04-07T16:43:17.015Z,6.05
2023-04-07T16:45:19.665Z,6.00
2023-04-07T16:47:22.315Z,5.90
2023-04-07T16:49:25.026Z,5.86
2023-04-07T16:51:28.639Z,5.80
2023-04-07T16:53:31.335Z,5.74
2023-04-07T16:55:36.681Z,5.66
2023-04-07T16:57:39.345Z,5.63
2023-04-07T16:59:42.156Z,5.62
2023-04-07T17:01:44.949Z,5.59
2023-04-07T17:03:52.773Z,5.51
2023-04-07T17:05:56.148Z,5.44
2023-04-07T17:07:58.931Z,5.36
2023-04-07T17:10:01.681Z,5.32
2023-04-07T17:12:06.527Z,5.20
2023-04-07T17:14:09.254Z,5.17
2023-04-07T17:16:15.017Z,5.10
2023-04-07T17:18:17.684Z,5.05
2023-04-07T17:20:20.544Z,5.01
2023-04-07T17:22:23.137Z,4.96
2023-04-07T17:24:25.841Z,4.92
2023-04-07T17:26:28.466Z,4.85
2023-04-07T17:28:31.248Z,4.77
2023-04-07T17:30:33.959Z,4.73
2023-04-07T17:32:39.561Z,4.66
2023-04-07T17:34:42.439Z,4.60
2023-04-07T17:36:45.108Z,4.52
2023-04-07T17:38:47.795Z,4.47
2023-04-07T17:40:59.969Z,4.38
2023-04-07T17:43:02.894Z,4.31
2023-04-07T17:45:08.912Z,4.28
2023-04-07T17:47:12.549Z,4.21
2023-04-07T17:49:15.888Z,4.16
2023-04-07T17:51:18.709Z,4.11
2023-04-07T17:53:21.348Z,4.10
2023-04-07T17:55:24.214Z,4.08
2023-04-07T17:57:26.919Z,4.05
2023-04-07T17:59:29.578Z,4.01
2023-04-07T18:01:32.433Z,3.99
2023-04-07T18:03:35.347Z,3.95
2023-04-07T18:05:38.928Z,3.90
2023-04-07T18:07:41.678Z,3.81
2023-04-07T18:09:45.063Z,3.80
2023-04-07T18:11:47.920Z,3.72
2023-04-07T18:13:50.922Z,3.69
2023-04-07T18:15:53.861Z,3.65
2023-04-07T18:17:57.248Z,3.61
2023-04-07T18:20:00.013Z,3.56
2023-04-07T18:22:02.684Z,3.52
2023-04-07T18:24:05.490Z,3.43
2023-04-07T18:26:08.247Z,3.48
2023-04-07T18:28:12.042Z,3.48
2023-04-07T18:30:14.824Z,3.47
2023-04-07T18:32:17.480Z,3.45
2023-04-07T18:34:20.126Z,3.44
2023-04-07T18:36:25.781Z,3.46
2023-04-07T18:38:28.480Z,3.49
2023-04-07T18:40:33.530Z,3.48
2023-04-07T18:42:36.206Z,3.47
2023-04-07T18:44:39.024Z,3.46
2023-04-07T18:46:41.749Z,3.45
2023-04-07T18:48:44.726Z,3.47
2023-04-07T18:50:52.474Z,3.47
2023-04-07T18:52:55.155Z,3.44
2023-04-07T18:54:58.173Z,3.46
2023-04-07T18:57:01.103Z,3.43
2023-04-07T18:59:04.061Z,3.42
2023-04-07T19:01:06.865Z,3.39
2023-04-07T19:03:09.987Z,3.32
2023-04-07T19:05:12.879Z,3.26
2023-04-07T19:07:15.690Z,3.26
2023-04-07T19:09:18.465Z,3.24
2023-04-07T19:11:21.209Z,3.20
2023-04-07T19:13:23.847Z,3.21
2023-04-07T19:15:26.940Z,3.22
2023-04-07T19:17:30.508Z,3.21
2023-04-07T19:19:33.584Z,3.15
2023-04-07T19:21:36.304Z,3.13
2023-04-07T19:23:40.867Z,3.11
2023-04-07T19:25:45.741Z,3.08
2023-04-07T19:27:48.776Z,3.05
2023-04-07T19:29:51.732Z,3.02
2023-04-07T19:31:56.092Z,2.99
2023-04-07T19:33:58.947Z,2.95
2023-04-07T19:36:04.427Z,2.94
2023-04-07T19:38:07.439Z,2.89
2023-04-07T19:40:10.919Z,2.90
2023-04-07T19:42:13.635Z,2.85
2023-04-07T19:44:16.945Z,2.87
2023-04-07T19:46:19.750Z,2.86
2023-04-07T19:48:22.762Z,2.81
2023-04-07T19:50:25.753Z,2.73
2023-04-07T19:52:32.252Z,2.66
2023-04-07T19:54:35.000Z,2.64
2023-04-07T19:56:38.141Z,2.60
2023-04-07T19:58:40.956Z,2.57
2023-04-07T20:00:45.712Z,2.53
2023-04-07T20:02:49.389Z,2.52
2023-04-07T20:04:53.640Z,2.55
2023-04-07T20:06:56.345Z,2.50
2023-04-07T20:08:59.098Z,2.49
2023-04-07T20:11:01.837Z,2.46
2023-04-07T20:13:06.405Z,2.47
2023-04-07T20:15:09.791Z,2.44
2023-04-07T20:17:12.718Z,2.44
2023-04-07T20:19:16.023Z,2.39
2023-04-07T20:21:18.792Z,2.38
2023-04-07T20:23:22.400Z,2.37
2023-04-07T20:25:25.208Z,2.35
2023-04-07T20:27:27.906Z,2.33
2023-04-07T20:29:30.708Z,2.28
2023-04-07T20:31:34.571Z,2.21
2023-04-07T20:33:37.441Z,2.16
2023-04-07T20:35:40.285Z,2.10
2023-04-07T20:37:44.049Z,2.07
2023-04-07T20:39:46.845Z,2.04
2023-04-07T20:41:49.546Z,1.96
2023-04-07T20:43:52.877Z,1.89
2023-04-07T20:45:56.960Z,1.84
2023-04-07T20:48:00.356Z,1.80
2023-04-07T20:50:03.197Z,1.77
2023-04-07T20:52:07.413Z,1.72
2023-04-07T20:54:10.192Z,1.69
2023-04-07T20:56:12.889Z,1.66
2023-04-07T20:58:17.847Z,1.62
2023-04-07T21:00:20.702Z,1.58
2023-04-07T21:02:23.812Z,1.54
2023-04-07T21:04:26.735Z,1.49
2023-04-07T21:06:29.572Z,1.46
2023-04-07T21:08:32.253Z,1.45
2023-04-07T21:10:34.906Z,1.44
2023-04-07T21:12:38.684Z,1.42
2023-04-07T21:14:41.324Z,1.43
2023-04-07T21:16:44.136Z,1.44
2023-04-07T21:18:47.014Z,1.42
2023-04-07T21:20:49.906Z,1.39
2023-04-07T21:22:52.531Z,1.33
2023-04-07T21:24:57.177Z,1.30
2023-04-07T21:26:59.964Z,1.24
2023-04-07T21:29:02.633Z,1.20
2023-04-07T21:31:05.995Z,1.17
2023-04-07T21:33:08.882Z,1.14
2023-04-07T21:35:11.619Z,1.12
2023-04-07T21:37:14.221Z,1.10
2023-04-07T21:39:16.987Z,1.06
2023-04-07T21:41:19.591Z,1.02
2023-04-07T21:43:23.781Z,0.99
2023-04-07T21:45:26.556Z,0.95
2023-04-07T21:47:29.242Z,0.91
2023-04-07T21:49:32.044Z,0.88
2023-04-07T21:51:34.948Z,0.86
2023-04-07T21:53:37.988Z,0.82
2023-04-07T21:55:40.886Z,0.78
2023-04-07T21:57:43.524Z,0.73
2023-04-07T21:59:46.278Z,0.68
2023-04-07T22:01:48.988Z,0.64
2023-04-07T22:03:52.058Z,0.61
2023-04-07T22:05:55.105Z,0.60
2023-04-07T22:07:58.665Z,0.56
2023-04-07T22:10:01.538Z,0.54
2023-04-07T22:12:05.901Z,0.50
2023-04-07T22:14:08.590Z,0.46
2023-04-07T22:16:12.311Z,0.45
2023-04-07T22:18:15.018Z,0.46
2023-04-07T22:20:17.989Z,0.46
2023-04-07T22:22:20.525Z,0.45
2023-04-07T22:24:23.187Z,0.43
2023-04-07T22:26:26.084Z,0.39
2023-04-07T22:28:28.731Z,0.35
2023-04-07T22:30:31.318Z,0.31
2023-04-07T22:32:34.070Z,0.28
2023-04-07T22:34:36.881Z,0.23
2023-04-07T22:36:39.467Z,0.17
2023-04-07T22:38:42.870Z,0.11
2023-04-07T22:40:45.582Z,0.07
2023-04-07T22:42:48.654Z,0.06
2023-04-07T22:44:51.659Z,0.03
2023-04-07T22:46:54.389Z,-0.02
2023-04-07T22:48:57.601Z,-0.06
2023-04-07T22:51:00.203Z,-0.09
2023-04-07T22:53:02.789Z,-0.13
2023-04-07T22:55:06.116Z,-0.17
2023-04-07T22:57:08.813Z,-0.20
2023-04-07T22:59:11.429Z,-0.23
2023-04-07T23:01:14.199Z,-0.25
2023-04-07T23:03:17.353Z,-0.29
2023-04-07T23:05:20.153Z,-0.31
2023-04-07T23:07:22.809Z,-0.32
2023-04-07T23:09:25.894Z,-0.34
2023-04-07T23:11:28.551Z,-0.38
2023-04-07T23:13:31.163Z,-0.42
2023-04-07T23:15:36.550Z,-0.43
2023-04-07T23:17:39.310Z,-0.47
2023-04-07T23:19:41.997Z,-0.52
2023-04-07T23:21:44.662Z,-0.53
2023-04-07T23:23:47.246Z,-0.54
2023-04-07T23:25:49.876Z,-0.53
2023-04-07T23:27:52.489Z,-0.52
2023-04-07T23:29:55.146Z,-0.51
2023-04-07T23:31:57.839Z,-0.51
2023-04-07T23:34:01.276Z,-0.51
2023-04-07T23:36:04.280Z,-0.52
2023-04-07T23:38:09.020Z,-0.49
2023-04-07T23:40:12.710Z,-0.50
2023-04-07T23:42:15.334Z,-0.50
2023-04-07T23:44:17.969Z,-0.52
2023-04-07T23:46:21.322Z,-0.52
2023-04-07T23:48:25.847Z,-0.54
2023-04-07T23:50:28.517Z,-0.55
2023-04-07T23:52:31.167Z,-0.56
2023-04-07T23:54:33.963Z,-0.55
2023-04-07T23:56:36.677Z,-0.57
2023-04-07T23:58:39.384Z,-0.58
